Time;durP1;ratioP1;P1;durP2;ratioP2;P2;SDS_P1;SDS_P2;PMS_P1;PMS_P2;Temp;Humidity;BMP_temperature;BMP_pressure;BME280_temperature;BME280_humidity;BME280_pressure;Samples;Min_cycle;Max_cycle;Signal;HPM_P1;HPM_P2
2021/08/14 00:01:51;;;;;;;10.73;9.60;;;;;;;18.28;64.90;99804.13;531166;1088;103075;-65
2021/08/14 00:11:58;;;;;;;12.20;11.00;;;;;;;18.25;64.97;99788.48;532564;1089;116759;-65
2021/08/14 00:22:04;;;;;;;10.77;9.67;;;;;;;18.19;65.55;99787.23;532586;1088;116636;-65
2021/08/14 00:32:12;;;;;;;13.53;10.17;;;;;;;18.10;65.41;99781.92;531826;1089;116910;-64
2021/08/14 00:42:19;;;;;;;13.00;11.80;;;;;;;18.15;65.99;99785.83;532584;1089;116534;-65
2021/08/14 00:52:26;;;;;;;12.57;9.80;;;;;;;18.17;66.16;99785.69;532550;1089;118545;-63
2021/08/14 01:02:34;;;;;;;10.85;9.80;;;;;;;18.16;66.33;99781.36;532569;1089;117020;-64
2021/08/14 01:12:41;;;;;;;12.00;10.87;;;;;;;18.16;66.65;99773.39;532554;1088;116797;-64
2021/08/14 01:22:48;;;;;;;11.47;10.47;;;;;;;18.10;66.60;99769.48;531746;1089;117616;-65
2021/08/14 01:32:56;;;;;;;11.90;10.83;;;;;;;18.08;66.88;99758.17;532561;1089;118105;-65
2021/08/14 01:43:03;;;;;;;13.75;12.35;;;;;;;18.01;67.18;99755.22;528687;1088;117157;-64
2021/08/14 01:53:09;;;;;;;14.20;12.13;;;;;;;17.99;67.45;99757.15;528078;1089;117108;-65
2021/08/14 02:03:16;;;;;;;11.17;10.23;;;;;;;17.85;67.60;99747.83;532469;1089;116717;-66
2021/08/14 02:13:23;;;;;;;13.90;12.50;;;;;;;17.68;68.08;99752.03;523929;1088;116579;-64
2021/08/14 02:23:30;;;;;;;13.55;12.03;;;;;;;17.55;68.46;99738.21;531814;1089;116891;-65
2021/08/14 02:33:36;;;;;;;13.13;11.93;;;;;;;17.44;68.85;99726.75;532560;1089;116621;-65
2021/08/14 02:43:43;;;;;;;12.93;11.53;;;;;;;17.36;69.39;99714.16;531815;1089;116167;-65
2021/08/14 02:53:50;;;;;;;12.03;10.93;;;;;;;17.24;69.95;99733.84;532512;1090;116602;-65
2021/08/14 03:03:56;;;;;;;14.27;12.83;;;;;;;17.15;70.00;99743.48;532565;1089;117273;-65
2021/08/14 03:14:03;;;;;;;13.07;11.73;;;;;;;17.05;70.35;99732.86;531718;1087;117205;-64
2021/08/14 03:24:09;;;;;;;13.77;12.57;;;;;;;17.02;70.58;99724.33;532522;1089;117662;-65
2021/08/14 03:34:17;;;;;;;12.43;11.33;;;;;;;16.97;70.81;99722.05;532630;1089;117029;-65
2021/08/14 03:44:23;;;;;;;14.53;10.93;;;;;;;17.00;70.91;99736.89;531865;1089;116260;-65
2021/08/14 03:54:30;;;;;;;15.93;11.27;;;;;;;17.19;70.94;99746.70;526976;1090;116293;-64
2021/08/14 04:04:36;;;;;;;14.30;10.73;;;;;;;17.47;70.50;99746.84;530269;1089;116276;-65
2021/08/14 04:14:43;;;;;;;12.07;10.47;;;;;;;17.79;70.15;99738.61;530477;1089;116783;-65
2021/08/14 04:25:07;;;;;;;14.03;12.47;;;;;;;18.48;70.12;99727.81;532510;1089;116476;-65
2021/08/14 04:35:13;;;;;;;;;;;;;;;19.38;68.76;99744.94;531858;1088;116192;-65
2021/08/14 04:45:20;;;;;;;12.60;11.30;;;;;;;20.46;67.48;99747.58;532846;1088;102083;-63
2021/08/14 04:55:26;;;;;;;13.80;10.33;;;;;;;21.41;65.79;99750.06;532618;1088;117649;-64
2021/08/14 05:05:33;;;;;;;12.53;11.33;;;;;;;22.70;64.90;99751.26;532627;1088;116853;-64
2021/08/14 05:15:39;;;;;;;14.07;10.40;;;;;;;27.48;58.09;99758.50;532590;1088;116963;-65
2021/08/14 05:25:46;;;;;;;16.67;12.20;;;;;;;29.78;53.54;99762.13;531887;1090;116930;-65
2021/08/14 05:35:53;;;;;;;11.05;9.95;;;;;;;33.19;48.84;99746.52;532512;1089;116930;-65
2021/08/14 05:45:59;;;;;;;9.10;8.30;;;;;;;37.82;41.98;99736.36;532565;1088;116585;-65
2021/08/14 05:56:06;;;;;;;9.25;8.45;;;;;;;42.22;36.13;99751.98;531879;1089;116245;-64
2021/08/14 06:06:13;;;;;;;8.40;7.60;;;;;;;45.26;31.10;99751.70;532619;1089;116554;-65
2021/08/14 06:16:19;;;;;;;10.77;8.10;;;;;;;48.52;26.82;99746.16;532600;1089;116909;-64
2021/08/14 06:26:26;;;;;;;10.03;7.70;;;;;;;44.97;25.61;99747.67;531785;1090;117115;-64
2021/08/14 06:36:32;;;;;;;10.80;9.03;;;;;;;44.00;26.27;99747.48;532548;1088;117264;-64
2021/08/14 06:46:39;;;;;;;9.88;8.98;;;;;;;47.17;23.27;99772.72;531787;1089;116697;-66
2021/08/14 06:56:45;;;;;;;8.95;7.53;;;;;;;49.44;22.34;99777.34;532574;1089;115897;-65
2021/08/14 07:06:52;;;;;;;9.73;7.68;;;;;;;53.02;18.87;99785.24;532518;1090;116022;-66
2021/08/14 07:16:59;;;;;;;9.50;8.60;;;;;;;52.63;17.48;99779.95;531678;1088;116487;-66
2021/08/14 07:27:06;;;;;;;9.53;8.78;;;;;;;53.79;16.62;99783.97;532486;1089;116604;-65
2021/08/14 07:37:13;;;;;;;9.70;8.85;;;;;;;52.99;15.97;99782.39;532586;1089;115504;-65
2021/08/14 07:47:20;;;;;;;8.83;8.33;;;;;;;52.06;15.86;99777.98;521289;1088;116476;-66
2021/08/14 07:57:26;;;;;;;9.00;8.13;;;;;;;52.08;15.92;99784.03;532451;1089;116921;-65
2021/08/14 08:07:33;;;;;;;10.73;10.00;;;;;;;54.90;14.91;99773.72;531834;1089;116411;-66
2021/08/14 08:17:40;;;;;;;9.15;8.45;;;;;;;54.98;14.27;99769.73;532564;1090;116712;-65
2021/08/14 08:27:49;;;;;;;9.57;8.17;;;;;;;47.66;17.07;99766.45;532190;1088;117031;-65
2021/08/14 08:37:56;;;;;;;7.98;7.28;;;;;;;42.66;19.78;99762.67;531845;1089;116501;-65
2021/08/14 08:48:05;;;;;;;8.50;7.70;;;;;;;39.83;22.41;99765.69;532510;1090;116353;-65
2021/08/14 08:58:11;;;;;;;8.60;7.80;;;;;;;38.85;23.56;99763.70;532536;1088;116406;-66
2021/08/14 09:08:18;;;;;;;9.65;8.73;;;;;;;38.25;24.82;99762.58;531829;1089;116232;-65
2021/08/14 09:18:24;;;;;;;8.80;7.98;;;;;;;37.44;25.17;99761.28;532477;1089;116231;-65
2021/08/14 09:28:37;;;;;;;7.60;6.90;;;;;;;36.40;26.78;99773.05;532048;1089;171932;-63
2021/08/14 09:38:46;;;;;;;8.00;7.20;;;;;;;35.58;27.46;99764.09;532566;1089;116379;-65
2021/08/14 09:48:57;;;;;;;9.90;7.80;;;;;;;35.19;28.46;99764.25;532496;1089;116828;-64
2021/08/14 09:59:05;;;;;;;8.05;7.25;;;;;;;34.24;29.03;99755.24;531770;1089;117117;-65
2021/08/14 10:09:12;;;;;;;10.25;8.10;;;;;;;33.93;30.64;99761.03;532588;1089;116940;-64
2021/08/14 10:19:19;;;;;;;10.75;7.75;;;;;;;33.67;31.00;99759.84;532657;1088;116076;-65
2021/08/14 10:29:46;;;;;;;9.83;8.67;;;;;;;33.02;31.85;99753.80;531841;1088;117024;-64
2021/08/14 10:39:56;;;;;;;10.87;9.83;;;;;;;31.87;33.97;99756.83;532533;1089;116144;-65
2021/08/14 10:50:03;;;;;;;16.13;10.57;;;;;;;31.59;34.26;99749.34;513856;1089;10001816;-65
2021/08/14 11:00:19;;;;;;;13.30;10.63;;;;;;;31.03;35.49;99753.08;532448;1090;118462;-65
2021/08/14 11:10:40;;;;;;;13.28;10.38;;;;;;;30.48;35.96;99743.94;528392;1088;116787;-65
2021/08/14 11:20:47;;;;;;;15.20;11.40;;;;;;;30.52;36.98;99738.91;532427;1088;116914;-67
2021/08/14 11:31:00;;;;;;;11.25;9.55;;;;;;;29.97;37.48;99740.50;520310;1088;116657;-65
2021/08/14 11:41:14;;;;;;;12.07;10.30;;;;;;;29.92;37.77;99738.45;523482;1090;116372;-64
2021/08/14 11:51:22;;;;;;;11.93;9.45;;;;;;;29.73;37.75;99742.20;532324;1089;117032;-64
2021/08/14 12:01:29;;;;;;;9.37;8.47;;;;;;;29.36;37.96;99735.56;530286;1089;115826;-65
2021/08/14 12:11:35;;;;;;;;;;;;;;;28.86;39.12;99730.06;527112;1088;116236;-65
2021/08/14 12:21:42;;;;;;;9.60;8.80;;;;;;;28.52;39.72;99725.60;524791;1089;102583;-65
2021/08/14 12:31:51;;;;;;;10.63;9.27;;;;;;;28.57;40.42;99729.52;525048;1089;116674;-65
2021/08/14 12:42:14;;;;;;;9.73;8.83;;;;;;;28.35;40.83;99727.13;532344;1088;116721;-65
2021/08/14 12:52:21;;;;;;;10.73;8.20;;;;;;;28.65;41.47;99722.03;532062;1090;116946;-65
2021/08/14 13:02:27;;;;;;;9.80;7.33;;;;;;;29.01;41.33;99722.48;531797;1089;116780;-64
2021/08/14 13:12:37;;;;;;;7.40;6.80;;;;;;;29.17;39.81;99718.43;532505;1089;116062;-63
2021/08/14 13:22:44;;;;;;;7.40;6.70;;;;;;;28.76;40.14;99711.59;531751;1089;116992;-64
2021/08/14 13:32:52;;;;;;;6.10;5.55;;;;;;;28.48;40.87;99708.18;532540;1090;116288;-64
2021/08/14 13:42:59;;;;;;;7.33;6.63;;;;;;;28.18;41.42;99705.17;519476;1089;115989;-63
2021/08/14 13:53:06;;;;;;;6.48;5.88;;;;;;;28.31;41.37;99691.63;531804;1089;116652;-63
2021/08/14 14:03:13;;;;;;;10.40;6.65;;;;;;;28.64;41.66;99684.42;515797;1089;116581;-63
2021/08/14 14:13:18;;;;;;;;;;;;;;;28.08;41.60;99687.52;519971;1089;115910;-63
2021/08/14 14:23:25;;;;;;;6.93;6.20;;;;;;;28.28;41.56;99677.72;524336;1089;103796;-64
2021/08/14 14:33:32;;;;;;;6.85;6.18;;;;;;;28.29;41.51;99676.67;515033;1086;116016;-63
2021/08/14 14:43:54;;;;;;;7.50;6.80;;;;;;;28.23;41.67;99667.56;524582;1089;116113;-63
2021/08/14 14:54:01;;;;;;;7.03;6.33;;;;;;;27.96;41.90;99662.22;532381;1088;116620;-63
2021/08/14 15:04:07;;;;;;;6.48;5.45;;;;;;;27.87;42.25;99661.59;532479;1089;116415;-63
2021/08/14 15:14:14;;;;;;;6.03;5.43;;;;;;;28.15;42.12;99649.70;531614;1088;115995;-63
2021/08/14 15:24:20;;;;;;;7.57;6.73;;;;;;;27.75;42.66;99641.70;522898;1088;116504;-64
2021/08/14 15:34:27;;;;;;;14.40;9.27;;;;;;;27.38;43.34;99639.45;532475;1089;116546;-64
2021/08/14 15:44:33;;;;;;;8.17;6.83;;;;;;;27.34;43.48;99622.02;532509;1089;116470;-64
2021/08/14 15:54:40;;;;;;;10.40;7.53;;;;;;;27.12;43.82;99619.53;524563;1090;116270;-62
2021/08/14 16:04:46;;;;;;;9.27;6.20;;;;;;;27.09;44.01;99623.48;531710;1089;116981;-62
2021/08/14 16:14:53;;;;;;;19.60;17.80;;;;;;;26.97;44.18;99614.36;524542;1089;116238;-64
2021/08/14 16:25:00;;;;;;;9.85;8.83;;;;;;;26.75;44.61;99606.42;518195;1088;117144;-62
2021/08/14 16:35:07;;;;;;;33.25;29.28;;;;;;;26.62;45.03;99590.25;519151;1089;116603;-64
2021/08/14 16:45:14;;;;;;;33.48;29.93;;;;;;;26.36;45.55;99584.59;521456;1088;116651;-58
2021/08/14 16:55:20;;;;;;;41.73;37.77;;;;;;;26.21;46.12;99590.13;530423;1088;116445;-65
2021/08/14 17:05:27;;;;;;;23.60;16.03;;;;;;;25.93;46.12;99574.88;531809;1089;118062;-65
2021/08/14 17:15:34;;;;;;;6.53;5.97;;;;;;;25.69;46.40;99581.57;532467;1089;117282;-64
2021/08/14 17:25:40;;;;;;;8.45;5.08;;;;;;;25.37;47.34;99578.44;531711;1089;116844;-64
2021/08/14 17:35:47;;;;;;;8.53;5.67;;;;;;;25.07;47.85;99578.64;532344;1088;115969;-64
2021/08/14 17:45:53;;;;;;;7.60;4.83;;;;;;;24.47;49.17;99585.05;532517;1087;117098;-64
2021/08/14 17:56:00;;;;;;;10.13;5.83;;;;;;;23.91;50.04;99587.27;531824;1088;116048;-64
2021/08/14 18:06:06;;;;;;;15.48;7.18;;;;;;;23.39;51.12;99583.64;530258;1089;117989;-64
2021/08/14 18:16:12;;;;;;;9.00;6.97;;;;;;;22.89;52.16;99592.05;532384;1089;116517;-64
2021/08/14 18:26:19;;;;;;;10.77;7.80;;;;;;;22.32;53.91;99596.72;531620;1088;116266;-64
2021/08/14 18:36:25;;;;;;;15.15;9.65;;;;;;;21.89;55.46;99598.94;532189;1088;116530;-64
2021/08/14 18:46:32;;;;;;;15.03;10.23;;;;;;;21.52;56.82;99601.97;531729;1088;117138;-64
2021/08/14 18:56:39;;;;;;;21.13;12.30;;;;;;;21.15;58.17;99592.67;532569;1089;117220;-64
2021/08/14 19:06:45;;;;;;;13.03;10.80;;;;;;;20.76;58.84;99593.30;523499;1088;10001219;-61
2021/08/14 19:16:53;;;;;;;20.52;11.25;;;;;;;20.48;60.09;99590.91;531800;1090;117029;-60
2021/08/14 19:26:59;;;;;;;21.05;12.45;;;;;;;20.23;60.50;99593.50;520960;1088;117970;-59
2021/08/14 19:37:06;;;;;;;16.03;13.67;;;;;;;19.92;61.31;99597.51;532413;1090;116703;-60
2021/08/14 19:47:13;;;;;;;14.83;13.37;;;;;;;19.68;62.06;99590.21;522059;1088;116773;-59
2021/08/14 19:57:19;;;;;;;23.87;18.73;;;;;;;19.41;62.71;99586.73;528176;1090;117089;-60
2021/08/14 20:07:26;;;;;;;18.37;14.73;;;;;;;19.20;63.45;99587.09;532434;1089;116776;-60
2021/08/14 20:17:33;;;;;;;24.00;20.40;;;;;;;19.02;63.60;99587.93;524840;1088;117566;-59
2021/08/14 20:27:40;;;;;;;27.80;20.77;;;;;;;18.84;64.16;99583.44;514215;1089;116426;-60
2021/08/14 20:37:47;;;;;;;31.65;24.88;;;;;;;18.68;64.61;99581.45;524686;1088;117844;-60
2021/08/14 20:47:54;;;;;;;28.05;23.30;;;;;;;18.46;65.04;99580.91;514986;1089;117923;-60
2021/08/14 20:58:01;;;;;;;24.90;21.63;;;;;;;18.37;65.60;99579.14;514016;1088;116180;-60
2021/08/14 21:08:09;;;;;;;39.87;28.90;;;;;;;18.21;65.80;99566.50;528475;1088;117499;-61
2021/08/14 21:18:15;;;;;;;36.70;26.23;;;;;;;18.07;66.35;99562.55;532426;1089;116372;-60
2021/08/14 21:28:21;;;;;;;38.17;30.87;;;;;;;17.97;66.86;99572.34;524368;1089;118354;-60
2021/08/14 21:38:28;;;;;;;36.50;30.40;;;;;;;17.77;67.28;99562.61;530967;1089;117166;-59
2021/08/14 21:48:34;;;;;;;37.43;28.47;;;;;;;17.65;67.71;99554.02;529310;1089;116893;-59
2021/08/14 21:58:41;;;;;;;37.40;28.67;;;;;;;17.53;67.82;99549.86;529803;1089;116603;-60
2021/08/14 22:08:47;;;;;;;29.07;25.17;;;;;;;17.41;68.25;99543.88;532491;1089;118800;-60
2021/08/14 22:18:54;;;;;;;29.67;24.77;;;;;;;17.27;68.54;99544.34;525907;1088;116546;-60
2021/08/14 22:29:00;;;;;;;31.10;20.73;;;;;;;17.15;68.75;99536.55;531684;1089;117488;-61
2021/08/14 22:39:07;;;;;;;25.20;19.50;;;;;;;16.99;68.90;99534.44;531171;1088;117616;-60
2021/08/14 22:49:14;;;;;;;21.40;19.10;;;;;;;16.88;69.16;99534.59;514253;1089;118939;-60
2021/08/14 22:59:21;;;;;;;20.53;17.77;;;;;;;16.74;69.55;99522.61;531398;1090;167553;-60
2021/08/14 23:09:27;;;;;;;20.17;15.77;;;;;;;16.67;70.15;99517.01;530901;1089;117657;-60
2021/08/14 23:19:33;;;;;;;25.53;17.97;;;;;;;16.57;70.66;99510.89;513875;1088;116293;-60
2021/08/14 23:29:40;;;;;;;20.45;15.13;;;;;;;16.41;70.24;99516.73;515003;1088;116304;-59
2021/08/14 23:39:47;;;;;;;17.53;14.03;;;;;;;16.30;70.82;99509.73;514679;1090;117602;-60
2021/08/14 23:49:53;;;;;;;16.77;14.37;;;;;;;16.18;70.96;99509.04;514361;1088;117433;-60
